Time;durP1;ratioP1;P1;durP2;ratioP2;P2;SDS_P1;SDS_P2;PMS_P1;PMS_P2;Temp;Humidity;BMP_temperature;BMP_pressure;BME280_temperature;BME280_humidity;BME280_pressure;Samples;Min_cycle;Max_cycle;Signal;HPM_P1;HPM_P2
2023/01/04 00:01:37;;;;;;;2.90;2.13;;;6.60;43.90;;;;;;5005367;28;20185;-74
2023/01/04 00:04:03;;;;;;;2.87;1.93;;;6.40;43.90;;;;;;5010893;28;20211;-73
2023/01/04 00:06:29;;;;;;;2.83;1.73;;;5.70;45.80;;;;;;5011493;28;20221;-73
2023/01/04 00:08:54;;;;;;;3.50;2.17;;;5.30;48.40;;;;;;5010928;28;20568;-73
2023/01/04 00:11:21;;;;;;;7.00;4.00;;;5.40;48.60;;;;;;5009587;28;20290;-73
2023/01/04 00:13:48;;;;;;;1.90;1.20;;;5.70;48.10;;;;;;5010148;28;20212;-73
2023/01/04 00:16:17;;;;;;;3.88;2.15;;;5.90;46.00;;;;;;5010238;28;20180;-73
2023/01/04 00:18:43;;;;;;;2.10;1.30;;;6.30;44.50;;;;;;5007639;28;20685;-74
2023/01/04 00:21:11;;;;;;;2.30;1.60;;;6.10;45.20;;;;;;5010984;28;20212;-74
2023/01/04 00:23:38;;;;;;;3.60;2.65;;;6.10;45.00;;;;;;5011295;28;20420;-74
2023/01/04 00:26:12;;;;;;;4.35;3.15;;;6.40;44.90;;;;;;5009685;28;20619;-73
2023/01/04 00:28:39;;;;;;;2.10;1.30;;;6.40;44.40;;;;;;5011249;28;20181;-73
2023/01/04 00:31:06;;;;;;;3.10;2.05;;;6.50;44.40;;;;;;5009302;28;20216;-74
2023/01/04 00:33:32;;;;;;;7.30;2.10;;;6.70;44.00;;;;;;5010829;28;20216;-74
2023/01/04 00:36:06;;;;;;;3.27;2.00;;;6.70;45.20;;;;;;5011193;28;20185;-73
2023/01/04 00:38:33;;;;;;;2.20;1.38;;;6.80;43.90;;;;;;5014009;28;20207;-73
2023/01/04 00:40:59;;;;;;;2.00;1.30;;;6.70;43.30;;;;;;5011873;28;20418;-74
2023/01/04 00:43:26;;;;;;;2.60;1.52;;;6.80;43.10;;;;;;5014270;28;20201;-74
2023/01/04 00:45:52;;;;;;;2.20;1.48;;;6.90;42.90;;;;;;5014879;28;20610;-78
2023/01/04 00:48:17;;;;;;;5.93;3.85;;;6.50;42.80;;;;;;5009263;28;20526;-74
2023/01/04 00:50:47;;;;;;;2.00;1.37;;;6.50;43.20;;;;;;5013548;28;20267;-74
2023/01/04 00:53:13;;;;;;;2.95;2.20;;;6.30;44.40;;;;;;5014089;28;20300;-74
2023/01/04 00:55:39;;;;;;;1.95;1.23;;;6.40;43.80;;;;;;5014615;28;20610;-74
2023/01/04 00:58:04;;;;;;;2.10;1.40;;;6.30;43.80;;;;;;5014346;28;20173;-74
2023/01/04 01:00:30;;;;;;;2.70;1.70;;;6.20;43.80;;;;;;5014702;28;20455;-74
2023/01/04 01:02:56;;;;;;;4.10;3.23;;;6.20;44.60;;;;;;5011025;28;20226;-74
2023/01/04 01:05:21;;;;;;;1.90;1.20;;;5.80;45.90;;;;;;5011506;28;20473;-74
2023/01/04 01:07:47;;;;;;;2.00;1.30;;;5.80;46.20;;;;;;5007413;28;20189;-74
2023/01/04 01:10:13;;;;;;;2.20;1.40;;;5.90;46.00;;;;;;5011736;28;20239;-74
2023/01/04 01:12:38;;;;;;;2.40;1.63;;;6.00;45.60;;;;;;5011972;28;20185;-74
2023/01/04 01:15:04;;;;;;;2.60;1.70;;;6.20;44.10;;;;;;5014065;28;20190;-74
2023/01/04 01:17:30;;;;;;;3.78;1.85;;;6.20;43.70;;;;;;5014327;28;20169;-74
2023/01/04 01:19:56;;;;;;;2.83;1.80;;;6.10;43.70;;;;;;5013800;28;20631;-73
2023/01/04 01:22:21;;;;;;;2.10;1.37;;;6.20;43.30;;;;;;5013190;28;20169;-75
2023/01/04 01:24:47;;;;;;;3.17;1.70;;;6.20;43.10;;;;;;5012832;28;20181;-74
2023/01/04 01:27:13;;;;;;;2.37;1.40;;;6.10;43.30;;;;;;5014049;28;20184;-73
2023/01/04 01:29:38;;;;;;;4.13;2.23;;;6.00;43.60;;;;;;5012694;28;20444;-73
2023/01/04 01:32:04;;;;;;;3.23;2.10;;;6.00;43.60;;;;;;5013830;28;20173;-74
2023/01/04 01:34:30;;;;;;;2.60;1.73;;;6.20;43.00;;;;;;5012976;28;20208;-74
2023/01/04 01:36:56;;;;;;;2.30;1.60;;;6.30;43.10;;;;;;5012575;28;20444;-74
2023/01/04 01:39:21;;;;;;;2.00;1.40;;;6.40;42.60;;;;;;5012507;28;20170;-74
2023/01/04 01:41:48;;;;;;;2.10;1.40;;;6.40;41.80;;;;;;5013732;28;20466;-74
2023/01/04 01:44:41;;;;;;;2.20;1.38;;;6.20;42.30;;;;;;5011901;28;20181;-73
2023/01/04 01:47:23;;;;;;;2.00;1.30;;;5.90;43.10;;;;;;5011782;28;21367;-73
2023/01/04 01:49:52;;;;;;;2.97;1.90;;;5.70;43.70;;;;;;5011618;28;20205;-73
2023/01/04 01:52:25;;;;;;;2.70;1.75;;;5.70;43.70;;;;;;5007434;28;20193;-74
2023/01/04 01:54:55;;;;;;;3.75;2.25;;;5.80;43.90;;;;;;5010576;28;20197;-73
2023/01/04 01:57:25;;;;;;;2.10;1.38;;;5.80;43.10;;;;;;5009181;28;20300;-74
2023/01/04 01:59:54;;;;;;;2.00;1.30;;;5.90;42.50;;;;;;5011315;28;20259;-73
2023/01/04 02:02:20;;;;;;;2.25;1.55;;;5.80;43.00;;;;;;5008193;28;20177;-73
2023/01/04 02:04:49;;;;;;;2.63;1.58;;;5.60;45.00;;;;;;5012322;28;20560;-74
2023/01/04 02:07:19;;;;;;;2.20;1.40;;;5.80;44.10;;;;;;5011316;28;20188;-73
2023/01/04 02:09:46;;;;;;;3.15;2.03;;;5.80;43.10;;;;;;5007209;28;20205;-74
2023/01/04 02:12:13;;;;;;;2.20;1.42;;;6.00;43.40;;;;;;5012073;28;20181;-74
2023/01/04 02:14:40;;;;;;;4.03;2.25;;;5.80;43.00;;;;;;5012542;28;20280;-74
2023/01/04 02:17:13;;;;;;;2.00;1.30;;;5.70;43.40;;;;;;5004223;28;20221;-73
2023/01/04 02:20:00;;;;;;;2.03;1.30;;;5.80;43.20;;;;;;5011373;28;20205;-73
2023/01/04 02:23:00;;;;;;;3.08;1.75;;;5.80;43.20;;;;;;5009599;28;20173;-73
2023/01/04 02:25:53;;;;;;;2.15;1.42;;;5.50;44.00;;;;;;5011829;28;20189;-74
2023/01/04 02:29:09;;;;;;;2.92;2.00;;;5.70;43.60;;;;;;5009586;28;20184;-73
2023/01/04 02:31:46;;;;;;;2.22;1.45;;;5.50;44.30;;;;;;5005320;28;20209;-73
2023/01/04 02:34:30;;;;;;;2.20;1.42;;;5.40;44.70;;;;;;5007177;28;20303;-74
2023/01/04 02:37:04;;;;;;;2.60;1.70;;;5.50;44.60;;;;;;5011408;28;20229;-74
2023/01/04 02:39:56;;;;;;;2.13;1.42;;;5.60;44.30;;;;;;5012561;28;20178;-73
2023/01/04 02:45:20;;;;;;;2.10;1.50;;;5.70;43.80;;;;;;5007507;28;20687;-73
2023/01/04 02:50:51;;;;;;;3.67;2.35;;;5.70;43.00;;;;;;5010687;28;20227;-73
2023/01/04 02:53:22;;;;;;;1.80;1.10;;;5.70;43.30;;;;;;5010352;28;20554;-73
2023/01/04 02:56:06;;;;;;;5.85;2.13;;;5.60;43.60;;;;;;5011512;28;20185;-73
2023/01/04 02:58:31;;;;;;;2.97;2.50;;;5.50;43.90;;;;;;5009181;28;20212;-73
2023/01/04 03:07:42;;;;;;;1.80;1.05;;;5.30;44.40;;;;;;4993062;28;20252;-73
2023/01/04 03:10:19;;;;;;;2.03;1.30;;;5.60;43.90;;;;;;5009208;28;20212;-74
2023/01/04 03:13:06;;;;;;;1.90;1.10;;;5.70;44.40;;;;;;5012133;28;20648;-74
2023/01/04 03:15:35;;;;;;;3.20;1.88;;;5.60;43.10;;;;;;5012488;28;20679;-74
2023/01/04 03:18:14;;;;;;;2.15;1.48;;;5.50;43.30;;;;;;5012328;28;20209;-73
2023/01/04 03:20:42;;;;;;;1.80;1.20;;;5.70;43.10;;;;;;5010537;28;20203;-74
2023/01/04 03:37:12;;;;;;;1.80;1.10;;;5.40;44.60;;;;;;5012183;28;20184;-73
2023/01/04 03:48:54;;;;;;;1.80;1.08;;;5.30;44.00;;;;;;4951239;29;20675;-73
2023/01/04 03:51:27;;;;;;;2.65;2.10;;;4.50;46.70;;;;;;4951292;29;20230;-73
2023/01/04 03:54:04;;;;;;;3.10;2.03;;;3.80;52.10;;;;;;4950307;28;20214;-73
2023/01/04 03:56:32;;;;;;;1.90;1.10;;;3.90;52.90;;;;;;4951488;28;20566;-73
2023/01/04 03:58:58;;;;;;;1.90;1.20;;;4.40;50.80;;;;;;4936696;29;20179;-73
2023/01/04 04:01:25;;;;;;;2.20;1.50;;;4.70;49.30;;;;;;4948910;28;20218;-73
2023/01/04 04:09:20;;;;;;;1.98;1.30;;;5.10;46.70;;;;;;4939633;28;20730;-74
2023/01/04 04:11:46;;;;;;;2.17;1.20;;;5.30;45.50;;;;;;4960843;28;20202;-74
2023/01/04 04:14:12;;;;;;;1.90;1.30;;;4.90;45.00;;;;;;5005093;28;20696;-73
2023/01/04 04:16:37;;;;;;;2.47;1.90;;;5.30;44.80;;;;;;5015732;28;20212;-74
2023/01/04 04:19:03;;;;;;;1.80;1.10;;;5.30;44.70;;;;;;5013502;28;20225;-73
2023/01/04 04:21:29;;;;;;;3.20;1.83;;;5.30;44.90;;;;;;5015190;28;20429;-73
2023/01/04 04:23:55;;;;;;;2.20;1.53;;;5.10;45.30;;;;;;5015504;28;20926;-73
2023/01/04 04:26:22;;;;;;;3.45;2.75;;;5.00;45.80;;;;;;5015424;28;20211;-74
2023/01/04 04:28:48;;;;;;;2.17;1.58;;;5.20;45.70;;;;;;5015699;28;20181;-74
2023/01/04 04:31:13;;;;;;;1.80;1.10;;;5.50;45.00;;;;;;5014539;28;20197;-73
2023/01/04 04:33:40;;;;;;;2.00;1.42;;;5.60;44.90;;;;;;5041786;22;20275;-70
2023/01/04 04:36:06;;;;;;;3.40;2.50;;;5.40;45.30;;;;;;5027442;28;20177;-69
2023/01/04 04:38:32;;;;;;;2.75;1.67;;;5.00;47.10;;;;;;5034285;28;20514;-69
2023/01/04 04:43:42;;;;;;;2.00;1.35;;;5.10;48.70;;;;;;5034484;28;20415;-70
2023/01/04 04:46:07;;;;;;;2.43;1.97;;;5.40;47.50;;;;;;5034508;28;20180;-71
2023/01/04 04:48:33;;;;;;;2.77;1.67;;;5.70;46.20;;;;;;5033462;28;20251;-70
2023/01/04 04:50:59;;;;;;;1.80;1.20;;;5.90;46.10;;;;;;5027463;28;20291;-70
2023/01/04 04:53:24;;;;;;;3.70;1.93;;;6.10;45.80;;;;;;5033716;28;20197;-70
2023/01/04 04:55:51;;;;;;;1.90;1.30;;;5.90;46.00;;;;;;5032961;28;20204;-71
2023/01/04 04:58:17;;;;;;;1.70;1.00;;;6.10;46.20;;;;;;5034348;28;20226;-70
2023/01/04 05:00:43;;;;;;;3.80;1.83;;;6.20;46.30;;;;;;5034259;28;20177;-71
2023/01/04 05:03:08;;;;;;;3.00;1.60;;;6.40;45.30;;;;;;5029901;28;20545;-70
2023/01/04 05:05:34;;;;;;;1.80;1.20;;;6.60;45.00;;;;;;5033346;28;20215;-71
2023/01/04 05:07:59;;;;;;;4.00;2.30;;;6.60;45.00;;;;;;5025891;28;20604;-71
2023/01/04 05:10:25;;;;;;;2.10;1.23;;;6.60;45.00;;;;;;5014681;28;20201;-71
2023/01/04 05:13:00;;;;;;;2.50;1.40;;;6.60;45.50;;;;;;5020672;28;20636;-70
2023/01/04 05:15:33;;;;;;;1.80;1.10;;;6.70;44.50;;;;;;5027767;28;20180;-71
2023/01/04 05:17:58;;;;;;;2.80;1.58;;;6.60;44.40;;;;;;5033971;28;20164;-71
2023/01/04 05:20:24;;;;;;;1.90;1.30;;;6.70;44.00;;;;;;5016721;28;20181;-73
2023/01/04 05:22:50;;;;;;;1.80;1.20;;;6.60;44.70;;;;;;5015126;28;20181;-72
2023/01/04 05:25:16;;;;;;;1.80;1.17;;;6.70;43.60;;;;;;5024364;28;20543;-71
2023/01/04 05:27:42;;;;;;;1.90;1.20;;;6.80;43.30;;;;;;5033515;28;20678;-71
2023/01/04 05:32:54;;;;;;;1.80;1.10;;;6.70;43.10;;;;;;5033642;28;20431;-71
2023/01/04 05:35:20;;;;;;;2.17;1.30;;;6.50;43.70;;;;;;5029382;28;20236;-72
2023/01/04 05:37:45;;;;;;;1.80;1.10;;;6.40;43.80;;;;;;5033534;28;20212;-71
2023/01/04 05:40:11;;;;;;;1.87;1.20;;;5.90;44.60;;;;;;5033257;28;20173;-71
2023/01/04 05:42:36;;;;;;;2.07;1.20;;;6.30;43.90;;;;;;5019553;28;20699;-72
2023/01/04 05:45:02;;;;;;;1.70;1.10;;;6.60;43.20;;;;;;5015795;28;20200;-72
2023/01/04 05:47:28;;;;;;;2.37;1.50;;;6.50;44.40;;;;;;5032934;28;20188;-71
2023/01/04 05:49:54;;;;;;;1.70;1.00;;;6.60;43.40;;;;;;5033272;28;20423;-71
2023/01/04 05:52:20;;;;;;;2.57;1.70;;;6.90;43.20;;;;;;5033344;28;20176;-71
2023/01/04 05:54:45;;;;;;;1.90;1.30;;;7.00;43.50;;;;;;5032376;28;20223;-71
2023/01/04 05:57:11;;;;;;;2.43;1.57;;;6.90;43.80;;;;;;5032514;28;20427;-72
2023/01/04 05:59:37;;;;;;;1.70;1.10;;;6.90;44.30;;;;;;5019415;28;20664;-72
2023/01/04 06:02:04;;;;;;;1.70;1.10;;;6.90;43.70;;;;;;5013514;28;20404;-73
2023/01/04 06:04:30;;;;;;;2.40;1.50;;;6.80;44.50;;;;;;5013452;28;20205;-73
2023/01/04 06:06:55;;;;;;;1.80;1.10;;;6.90;44.70;;;;;;5025450;28;20264;-71
2023/01/04 06:09:21;;;;;;;2.07;1.20;;;7.00;43.30;;;;;;5032919;28;20188;-71
2023/01/04 06:11:46;;;;;;;2.63;1.90;;;7.00;43.30;;;;;;5032544;28;20169;-71
2023/01/04 06:14:12;;;;;;;2.00;1.27;;;6.80;45.40;;;;;;5029052;28;20201;-71
2023/01/04 06:16:38;;;;;;;4.13;1.53;;;6.90;44.70;;;;;;5026344;28;20635;-71
2023/01/04 06:19:03;;;;;;;2.30;1.30;;;6.50;46.20;;;;;;5027399;28;20172;-70
2023/01/04 06:21:29;;;;;;;1.90;1.30;;;6.70;45.50;;;;;;5032578;28;20609;-71
2023/01/04 06:23:54;;;;;;;4.00;2.07;;;6.90;44.70;;;;;;5032860;28;20618;-70
2023/01/04 06:26:20;;;;;;;3.50;2.17;;;7.00;45.80;;;;;;5032411;28;20177;-72
2023/01/04 06:28:46;;;;;;;2.00;1.27;;;7.10;45.00;;;;;;5031088;28;20208;-71
2023/01/04 06:31:12;;;;;;;1.80;1.10;;;7.20;45.20;;;;;;5032803;28;20259;-70
2023/01/04 06:33:38;;;;;;;2.53;1.45;;;7.50;44.70;;;;;;5022061;28;20291;-70
2023/01/04 06:36:04;;;;;;;5.10;2.63;;;7.40;44.80;;;;;;5031966;28;20208;-71
2023/01/04 06:38:31;;;;;;;2.45;1.85;;;7.50;44.00;;;;;;5032367;28;20523;-71
2023/01/04 06:40:56;;;;;;;1.80;1.15;;;7.70;43.70;;;;;;5032446;28;20651;-71
2023/01/04 06:43:22;;;;;;;1.90;1.20;;;7.50;43.90;;;;;;5025910;28;20212;-72
2023/01/04 06:45:48;;;;;;;1.90;1.20;;;7.50;44.50;;;;;;5032470;28;20622;-70
2023/01/04 06:48:13;;;;;;;1.80;1.10;;;7.60;44.80;;;;;;5032442;28;20673;-74
2023/01/04 06:50:39;;;;;;;8.13;3.03;;;7.80;43.90;;;;;;5031190;28;20185;-76
2023/01/04 06:53:04;;;;;;;3.00;1.67;;;7.00;47.00;;;;;;5030750;28;20288;-76
2023/01/04 06:55:30;;;;;;;2.10;1.43;;;7.20;47.10;;;;;;5031667;28;20197;-76
2023/01/04 06:57:56;;;;;;;2.20;1.50;;;7.50;45.90;;;;;;5032818;28;20651;-75
2023/01/04 07:00:22;;;;;;;2.00;1.20;;;7.30;45.80;;;;;;5032607;28;20211;-71
2023/01/04 07:02:48;;;;;;;1.90;1.20;;;7.10;46.50;;;;;;5027574;28;20204;-76
2023/01/04 07:05:13;;;;;;;2.00;1.20;;;6.90;46.90;;;;;;5030400;28;20195;-71
2023/01/04 07:07:39;;;;;;;1.97;1.27;;;7.00;47.00;;;;;;5026689;28;20234;-72
2023/01/04 07:10:05;;;;;;;3.70;1.80;;;7.20;46.50;;;;;;5026141;28;20185;-71
2023/01/04 07:12:31;;;;;;;2.28;1.50;;;7.70;46.00;;;;;;5029968;28;20690;-72
2023/01/04 07:14:57;;;;;;;2.38;1.67;;;8.10;44.30;;;;;;5024113;28;22358;-77
2023/01/04 07:17:23;;;;;;;2.10;1.30;;;8.30;43.90;;;;;;5023528;28;20184;-71
2023/01/04 07:19:48;;;;;;;1.80;1.10;;;8.30;44.40;;;;;;5030106;28;20181;-70
2023/01/04 07:22:14;;;;;;;1.90;1.10;;;8.40;43.60;;;;;;5031600;28;20239;-72
2023/01/04 07:24:40;;;;;;;2.30;1.42;;;8.70;43.10;;;;;;5028690;28;20686;-73
2023/01/04 07:27:06;;;;;;;1.90;1.10;;;8.90;42.10;;;;;;5022154;28;20275;-74
2023/01/04 07:29:31;;;;;;;1.80;1.10;;;9.20;41.30;;;;;;5031469;28;20696;-74
2023/01/04 07:31:57;;;;;;;1.80;1.00;;;9.10;42.50;;;;;;5030558;28;20173;-76
2023/01/04 07:34:24;;;;;;;1.80;1.10;;;9.00;42.50;;;;;;5018734;28;20224;-75
2023/01/04 07:36:56;;;;;;;1.80;1.00;;;8.80;43.90;;;;;;5029919;28;20215;-72
2023/01/04 07:39:22;;;;;;;1.90;1.10;;;8.70;43.40;;;;;;5027834;28;20255;-74
2023/01/04 07:41:49;;;;;;;1.93;1.13;;;9.10;42.60;;;;;;5026972;28;20639;-74
2023/01/04 07:44:28;;;;;;;1.80;1.00;;;9.00;43.40;;;;;;5023193;28;20443;-74
2023/01/04 07:47:03;;;;;;;1.90;1.10;;;9.20;44.00;;;;;;5023720;28;20241;-74
2023/01/04 07:49:41;;;;;;;1.83;1.05;;;9.20;40.20;;;;;;5025481;28;20214;-74
2023/01/04 07:52:18;;;;;;;2.20;1.30;;;9.40;41.00;;;;;;5027997;28;20237;-74
2023/01/04 07:54:52;;;;;;;2.00;1.20;;;9.30;41.00;;;;;;5027045;28;20230;-75
2023/01/04 07:57:18;;;;;;;1.90;1.20;;;9.30;41.00;;;;;;5042914;28;20184;-74
2023/01/04 07:59:44;;;;;;;2.43;1.33;;;9.40;34.80;;;;;;5034719;28;20162;-71
2023/01/04 08:02:11;;;;;;;1.80;1.10;;;9.60;37.20;;;;;;5038297;28;20232;-73
2023/01/04 08:04:37;;;;;;;1.75;1.10;;;9.60;40.20;;;;;;5033408;28;20813;-74
2023/01/04 08:07:02;;;;;;;1.80;1.10;;;10.00;37.60;;;;;;5031324;28;20239;-74
2023/01/04 08:09:28;;;;;;;1.80;1.10;;;10.30;38.30;;;;;;5033728;28;20503;-74
2023/01/04 08:11:53;;;;;;;1.90;1.20;;;10.50;38.30;;;;;;5028567;28;20607;-73
2023/01/04 08:14:19;;;;;;;1.80;1.00;;;10.70;36.10;;;;;;5024251;28;20220;-73
2023/01/04 08:16:45;;;;;;;1.90;1.20;;;10.80;38.60;;;;;;5033190;28;20174;-74
2023/01/04 08:19:19;;;;;;;2.10;1.40;;;10.50;37.40;;;;;;5033840;28;20181;-75
2023/01/04 08:21:45;;;;;;;1.80;1.10;;;10.50;38.70;;;;;;5033773;28;20187;-73
2023/01/04 08:24:12;;;;;;;1.80;1.10;;;10.20;39.70;;;;;;5033415;28;20203;-74
2023/01/04 08:26:38;;;;;;;2.33;1.33;;;10.10;38.70;;;;;;5048134;28;20204;-73
2023/01/04 08:29:05;;;;;;;1.80;1.10;;;10.30;39.60;;;;;;5058862;28;20185;-73
2023/01/04 08:31:31;;;;;;;2.42;1.48;;;10.20;36.90;;;;;;5040550;28;20451;-73
2023/01/04 08:34:00;;;;;;;1.80;1.10;;;10.30;41.00;;;;;;5032600;28;20243;-74
2023/01/04 08:36:28;;;;;;;1.80;1.10;;;10.80;41.10;;;;;;5041705;28;20272;-74
2023/01/04 08:38:59;;;;;;;1.77;1.10;;;10.90;41.20;;;;;;5034663;28;20191;-74
2023/01/04 08:41:25;;;;;;;1.77;1.08;;;10.80;39.00;;;;;;5033577;28;20175;-74
2023/01/04 08:43:51;;;;;;;1.80;1.10;;;10.70;38.70;;;;;;5034986;28;20268;-73
2023/01/04 08:46:18;;;;;;;1.80;1.13;;;10.60;35.00;;;;;;5063834;28;20259;-73
2023/01/04 08:48:43;;;;;;;1.70;1.00;;;10.50;37.10;;;;;;5046153;28;21159;-74
2023/01/04 08:51:13;;;;;;;1.70;1.10;;;10.50;32.80;;;;;;5046451;28;20202;-73
2023/01/04 08:53:39;;;;;;;1.73;1.00;;;10.80;33.10;;;;;;5034141;28;20299;-74
2023/01/04 08:56:06;;;;;;;1.80;1.10;;;11.20;33.00;;;;;;5038882;28;20629;-74
2023/01/04 08:58:32;;;;;;;1.88;1.10;;;11.20;31.10;;;;;;5040604;28;20666;-74
2023/01/04 09:01:03;;;;;;;1.90;1.10;;;11.40;30.70;;;;;;5038956;28;20185;-74
2023/01/04 09:03:29;;;;;;;1.90;1.10;;;11.70;31.10;;;;;;5037901;28;20702;-74
2023/01/04 09:06:10;;;;;;;1.98;1.05;;;11.90;32.20;;;;;;5041497;28;20176;-74
2023/01/04 09:08:37;;;;;;;1.98;1.10;;;11.50;30.00;;;;;;5042202;28;20704;-74
2023/01/04 09:11:12;;;;;;;2.05;1.13;;;11.30;32.10;;;;;;5039869;28;20192;-74
2023/01/04 09:13:38;;;;;;;2.17;1.20;;;11.80;31.60;;;;;;5037368;28;20209;-73
2023/01/04 09:16:10;;;;;;;2.10;1.00;;;11.40;30.10;;;;;;5044094;28;20179;-74
2023/01/04 09:18:36;;;;;;;2.03;1.10;;;11.50;30.00;;;;;;5043964;28;20550;-74
2023/01/04 09:21:18;;;;;;;2.20;1.20;;;11.30;29.10;;;;;;5042831;28;20870;-72
2023/01/04 09:23:45;;;;;;;2.27;1.20;;;11.20;32.50;;;;;;5039787;28;20208;-72
2023/01/04 09:26:16;;;;;;;2.23;1.10;;;11.40;31.60;;;;;;5040980;28;20439;-72
2023/01/04 09:28:42;;;;;;;2.30;1.10;;;11.40;30.40;;;;;;5041388;28;20835;-72
2023/01/04 09:31:14;;;;;;;2.27;1.00;;;11.50;29.60;;;;;;5037448;28;20602;-76
2023/01/04 09:33:41;;;;;;;2.50;1.23;;;11.80;28.70;;;;;;5035639;28;20212;-73
2023/01/04 09:36:08;;;;;;;2.50;1.10;;;11.70;29.20;;;;;;5029056;28;20510;-71
2023/01/04 09:38:34;;;;;;;2.47;1.10;;;11.80;28.90;;;;;;5041225;28;20424;-73
2023/01/04 09:41:11;;;;;;;2.70;1.10;;;12.40;28.80;;;;;;5030660;28;20443;-74
2023/01/04 09:43:49;;;;;;;2.60;1.10;;;12.20;27.60;;;;;;5030791;28;20454;-74
2023/01/04 09:46:44;;;;;;;2.50;1.10;;;11.70;29.10;;;;;;5039403;28;20423;-72
2023/01/04 09:49:18;;;;;;;2.60;1.10;;;11.70;28.80;;;;;;5034947;28;20466;-73
2023/01/04 09:52:01;;;;;;;2.53;1.10;;;11.70;29.60;;;;;;5045242;28;20856;-73
2023/01/04 09:54:35;;;;;;;2.60;1.10;;;11.50;29.80;;;;;;5042707;28;20464;-74
2023/01/04 09:57:02;;;;;;;2.60;1.10;;;11.70;29.80;;;;;;5037848;28;20431;-73
2023/01/04 09:59:32;;;;;;;2.60;1.10;;;11.70;30.00;;;;;;5032537;28;20428;-73
2023/01/04 10:02:11;;;;;;;2.60;1.10;;;12.00;29.70;;;;;;5027499;28;20439;-73
2023/01/04 10:04:46;;;;;;;2.70;1.20;;;12.10;29.70;;;;;;5026550;28;20457;-74
2023/01/04 10:07:22;;;;;;;2.77;1.20;;;12.10;29.60;;;;;;5049445;28;20542;-73
2023/01/04 10:09:48;;;;;;;2.70;1.10;;;12.40;30.00;;;;;;5037494;28;20407;-73
2023/01/04 10:12:44;;;;;;;3.20;1.60;;;11.70;30.70;;;;;;5039263;28;21000;-73
2023/01/04 10:15:19;;;;;;;2.60;1.00;;;11.90;30.50;;;;;;5039675;28;20193;-74
2023/01/04 10:17:54;;;;;;;2.67;1.10;;;11.80;30.80;;;;;;5045411;28;20414;-73
2023/01/04 10:20:37;;;;;;;2.70;1.20;;;11.20;32.00;;;;;;5044311;28;20441;-72
2023/01/04 10:23:12;;;;;;;2.77;1.20;;;11.60;31.50;;;;;;5036272;28;20450;-73
2023/01/04 10:26:06;;;;;;;2.70;1.10;;;11.80;31.30;;;;;;5042183;28;20971;-73
2023/01/04 10:28:47;;;;;;;2.70;1.20;;;11.90;31.00;;;;;;5038248;28;20410;-73
2023/01/04 10:31:39;;;;;;;2.70;1.20;;;11.90;31.20;;;;;;5036134;28;20473;-76
2023/01/04 10:34:23;;;;;;;2.70;1.20;;;12.40;31.60;;;;;;5034855;28;20470;-73
2023/01/04 10:37:14;;;;;;;2.60;1.10;;;12.20;31.00;;;;;;5033722;28;21112;-72
2023/01/04 10:39:44;;;;;;;2.70;1.07;;;12.30;31.20;;;;;;5041068;28;20419;-73
2023/01/04 10:42:37;;;;;;;2.80;1.20;;;12.70;30.00;;;;;;5042268;28;20415;-74
2023/01/04 10:45:15;;;;;;;2.77;1.13;;;13.30;29.80;;;;;;5035288;28;20550;-74
2023/01/04 10:48:06;;;;;;;2.80;1.30;;;13.30;29.70;;;;;;5041948;28;20427;-74
2023/01/04 10:50:56;;;;;;;2.73;1.20;;;13.20;29.60;;;;;;5039226;28;20418;-73
2023/01/04 10:53:36;;;;;;;2.73;1.17;;;13.10;30.00;;;;;;5042842;28;20434;-74
2023/01/04 10:56:08;;;;;;;2.70;1.20;;;12.70;31.10;;;;;;5036569;28;20470;-74
2023/01/04 10:58:50;;;;;;;2.77;1.10;;;12.50;31.80;;;;;;5033803;28;20497;-73
2023/01/04 11:01:25;;;;;;;2.70;1.10;;;12.90;31.30;;;;;;5041315;28;20427;-73
2023/01/04 11:04:14;;;;;;;2.90;1.30;;;12.90;31.70;;;;;;5040603;28;20435;-73
2023/01/04 11:06:47;;;;;;;2.83;1.27;;;12.70;32.20;;;;;;5033618;28;20446;-73
2023/01/04 11:09:27;;;;;;;2.70;1.10;;;12.90;32.30;;;;;;5039724;28;20502;-73
2023/01/04 11:11:56;;;;;;;2.83;1.20;;;13.20;31.30;;;;;;5040789;28;20469;-73
2023/01/04 11:14:24;;;;;;;2.77;1.10;;;13.20;32.00;;;;;;5037630;28;20557;-73
2023/01/04 11:16:53;;;;;;;2.87;1.20;;;13.00;32.60;;;;;;5039223;28;20442;-73
2023/01/04 11:19:18;;;;;;;2.80;1.10;;;12.70;33.50;;;;;;5041413;28;20451;-73
2023/01/04 11:21:55;;;;;;;2.80;1.20;;;13.00;33.60;;;;;;5034689;28;20448;-74
2023/01/04 11:24:22;;;;;;;2.80;1.20;;;13.10;34.00;;;;;;5032024;28;20198;-73
2023/01/04 11:26:49;;;;;;;2.80;1.17;;;13.40;33.10;;;;;;5041037;28;20470;-73
2023/01/04 11:29:48;;;;;;;2.90;1.27;;;13.50;33.20;;;;;;5038936;28;20429;-73
2023/01/04 11:32:33;;;;;;;2.80;1.17;;;13.20;34.50;;;;;;5034587;28;20445;-73
2023/01/04 11:34:58;;;;;;;2.80;1.10;;;12.80;35.00;;;;;;5038878;28;20467;-73
2023/01/04 11:37:26;;;;;;;2.83;1.20;;;13.20;34.00;;;;;;5042636;28;20929;-74
2023/01/04 11:40:15;;;;;;;2.90;1.20;;;13.00;34.40;;;;;;5041884;28;20177;-74
2023/01/04 11:42:41;;;;;;;2.90;1.20;;;12.80;35.40;;;;;;5037324;28;20438;-74
2023/01/04 11:45:26;;;;;;;2.90;1.20;;;12.70;36.20;;;;;;5039815;28;20804;-74
2023/01/04 11:48:24;;;;;;;2.80;1.10;;;12.80;36.30;;;;;;5040317;28;20412;-74
2023/01/04 11:50:54;;;;;;;2.87;1.17;;;13.10;35.30;;;;;;5040663;28;20473;-74
2023/01/04 11:53:30;;;;;;;2.90;1.20;;;13.40;35.50;;;;;;5040438;28;20459;-74
2023/01/04 11:56:12;;;;;;;2.90;1.20;;;13.90;34.60;;;;;;5040039;28;20529;-73
2023/01/04 11:58:39;;;;;;;2.90;1.20;;;13.80;34.40;;;;;;5041625;28;20414;-74
2023/01/04 12:01:05;;;;;;;2.90;1.10;;;13.50;34.50;;;;;;5036146;28;20435;-74
2023/01/04 12:03:39;;;;;;;2.80;1.10;;;13.60;34.50;;;;;;5045041;28;20472;-74
2023/01/04 12:06:20;;;;;;;2.97;1.30;;;13.00;35.50;;;;;;5044287;28;20178;-74
2023/01/04 12:08:46;;;;;;;3.70;1.50;;;13.00;36.10;;;;;;5059744;28;20447;-74
2023/01/04 12:11:27;;;;;;;2.87;1.30;;;13.20;35.80;;;;;;5038958;28;20439;-74
2023/01/04 12:13:52;;;;;;;2.80;1.20;;;13.00;36.30;;;;;;5032010;28;20491;-74
2023/01/04 12:16:21;;;;;;;2.83;1.20;;;13.00;35.90;;;;;;5032223;28;20410;-73
2023/01/04 12:18:47;;;;;;;2.83;1.20;;;13.30;35.60;;;;;;5048043;28;20775;-74
2023/01/04 12:21:21;;;;;;;2.90;1.20;;;13.10;36.30;;;;;;5044486;28;20435;-74
2023/01/04 12:23:48;;;;;;;2.90;1.30;;;13.30;35.40;;;;;;5033021;28;20229;-74
2023/01/04 12:26:15;;;;;;;3.33;1.40;;;13.10;36.40;;;;;;5043499;28;20417;-73
2023/01/04 12:28:45;;;;;;;3.00;1.37;;;13.70;36.10;;;;;;5032025;28;20455;-73
2023/01/04 12:31:19;;;;;;;2.93;1.20;;;13.90;35.50;;;;;;5031489;28;20407;-74
2023/01/04 12:33:55;;;;;;;3.00;1.30;;;13.60;35.70;;;;;;5025089;28;20878;-73
2023/01/04 12:36:39;;;;;;;3.00;1.27;;;14.00;34.30;;;;;;5032727;28;20427;-73
2023/01/04 12:39:07;;;;;;;2.90;1.20;;;13.70;35.70;;;;;;5032982;28;20412;-73
2023/01/04 12:41:32;;;;;;;2.93;1.27;;;13.70;35.60;;;;;;5033812;28;20406;-73
2023/01/04 12:43:58;;;;;;;2.90;1.20;;;13.70;35.80;;;;;;5033197;28;20449;-73
2023/01/04 12:49:26;;;;;;;3.80;1.70;;;13.60;35.70;;;;;;5024218;28;20197;-73
2023/01/04 12:52:07;;;;;;;3.03;1.27;;;13.60;35.70;;;;;;5024279;28;20419;-73
2023/01/04 12:54:47;;;;;;;2.90;1.20;;;13.80;35.80;;;;;;5036300;28;20464;-73
2023/01/04 12:57:18;;;;;;;2.90;1.10;;;13.90;35.20;;;;;;5037647;28;20428;-74
2023/01/04 13:00:01;;;;;;;3.63;1.30;;;13.50;35.60;;;;;;5038979;28;20413;-74
2023/01/04 13:02:35;;;;;;;3.00;1.20;;;13.20;36.30;;;;;;5039773;28;20444;-74
2023/01/04 13:05:23;;;;;;;2.90;1.10;;;13.40;36.90;;;;;;5035689;28;20533;-74
2023/01/04 13:08:02;;;;;;;4.17;2.13;;;13.80;35.90;;;;;;5020585;28;20525;-74
2023/01/04 13:10:50;;;;;;;3.00;1.30;;;13.40;35.90;;;;;;5015090;28;20419;-74
2023/01/04 13:13:28;;;;;;;3.00;1.20;;;13.70;35.80;;;;;;5033369;28;20461;-74
2023/01/04 13:16:22;;;;;;;3.07;1.30;;;13.50;35.60;;;;;;5034684;28;20815;-74
2023/01/04 13:19:00;;;;;;;2.90;1.10;;;13.70;35.80;;;;;;5033841;28;20767;-74
2023/01/04 13:22:05;;;;;;;2.90;1.10;;;13.30;36.70;;;;;;5032080;28;20453;-74
2023/01/04 13:24:37;;;;;;;2.90;1.20;;;13.60;35.70;;;;;;5023416;28;20440;-74
2023/01/04 13:27:16;;;;;;;3.00;1.30;;;13.90;36.00;;;;;;5033081;28;20388;-74
2023/01/04 13:29:45;;;;;;;3.00;1.20;;;13.80;35.90;;;;;;5033362;28;20407;-74
2023/01/04 13:32:29;;;;;;;2.90;1.10;;;14.10;34.90;;;;;;5031172;28;20491;-74
2023/01/04 13:35:18;;;;;;;2.90;1.10;;;13.90;35.30;;;;;;4905558;28;3709408;-74
2023/01/04 13:37:52;;;;;;;2.97;1.27;;;13.80;35.60;;;;;;5015666;28;20559;-73
2023/01/04 13:40:34;;;;;;;2.90;1.10;;;13.70;35.80;;;;;;5015910;28;20399;-74
2023/01/04 13:43:20;;;;;;;3.10;1.30;;;13.80;35.90;;;;;;5013405;28;20516;-74
2023/01/04 13:46:26;;;;;;;2.90;1.20;;;14.10;35.20;;;;;;5021633;28;20438;-77
2023/01/04 13:48:58;;;;;;;2.90;1.10;;;13.90;35.50;;;;;;5024050;28;20521;-73
2023/01/04 13:51:33;;;;;;;2.97;1.20;;;13.80;35.90;;;;;;5029146;28;20421;-74
2023/01/04 13:54:05;;;;;;;2.97;1.17;;;13.90;35.90;;;;;;5023434;28;20454;-73
2023/01/04 13:56:33;;;;;;;3.00;1.30;;;13.40;36.80;;;;;;5020467;28;20414;-74
2023/01/04 13:59:01;;;;;;;3.00;1.20;;;13.50;36.40;;;;;;5028617;28;20429;-74
2023/01/04 14:01:33;;;;;;;2.90;1.20;;;13.60;36.00;;;;;;5021942;28;20423;-74
2023/01/04 14:04:15;;;;;;;3.00;1.30;;;13.40;37.50;;;;;;5032583;28;20453;-73